Terminal Aerodrome Forecast
Issued by NWS Cleveland, OH

Home | Current Version | Previous Version | Graphics & Text | Print | Product List | Glossary On
Versions: 1 2 3 4 5 6 7 8 9 10 11 12 13 14 15 16 17 18
000
FTUS41 KCLE 201120
TAFERI
TAF
KERI 201120Z 2012/2112 28008KT 5SM -DZ BR OVC010
      TEMPO 2012/2015 2SM -DZ BR OVC005
     FM201500 30006KT P6SM BKN015
      TEMPO 2015/2018 BKN006
     FM201800 30008KT P6SM BKN035
     FM210300 06005KT P6SM SCT100=

USA.gov is the U.S. government's official web portal to all federal, state and local government web resources and services.